createdAt,value
2019-04-03T00:00:09.741Z,82.10
2019-04-03T00:02:38.352Z,81.50
2019-04-03T00:05:07.538Z,81.90
2019-04-03T00:07:36.282Z,82.00
2019-04-03T00:10:07.430Z,81.70
2019-04-03T00:12:36.608Z,81.50
2019-04-03T00:15:07.164Z,81.40
2019-04-03T00:17:35.826Z,81.20
2019-04-03T00:20:07.717Z,81.50
2019-04-03T00:22:37.716Z,80.40
2019-04-03T00:25:07.395Z,80.20
2019-04-03T00:27:39.014Z,80.00
2019-04-03T00:30:09.722Z,80.00
2019-04-03T00:32:38.352Z,80.60
2019-04-03T00:35:09.792Z,80.60
2019-04-03T00:37:38.376Z,81.00
2019-04-03T00:40:07.515Z,81.70
2019-04-03T00:42:36.240Z,82.00
2019-04-03T00:45:06.797Z,82.50
2019-04-03T00:47:35.472Z,82.10
2019-04-03T00:50:09.788Z,82.60
2019-04-03T00:52:38.398Z,83.40
2019-04-03T00:55:07.201Z,82.20
2019-04-03T00:57:35.979Z,83.50
2019-04-03T01:00:07.618Z,83.10
2019-04-03T01:02:36.194Z,82.50
2019-04-03T01:05:05.731Z,82.10
2019-04-03T01:07:34.351Z,82.60
2019-04-03T01:10:05.852Z,83.10
2019-04-03T01:12:34.414Z,83.10
2019-04-03T01:15:03.503Z,82.10
2019-04-03T01:17:34.129Z,82.10
2019-04-03T01:20:02.547Z,81.80
2019-04-03T01:22:31.131Z,81.80
2019-04-03T01:25:01.344Z,81.70
2019-04-03T01:27:31.575Z,81.60
2019-04-03T01:30:00.153Z,81.40
2019-04-03T01:32:28.797Z,81.30
2019-04-03T01:34:57.355Z,81.30
2019-04-03T01:37:28.936Z,81.20
2019-04-03T01:39:57.615Z,81.30
2019-04-03T01:42:26.161Z,81.40
2019-04-03T01:44:55.459Z,81.60
2019-04-03T01:47:27.346Z,81.80
2019-04-03T01:49:54.895Z,82.10
2019-04-03T01:52:23.516Z,81.90
2019-04-03T01:54:52.248Z,82.00
2019-04-03T01:57:20.783Z,81.90
2019-04-03T01:59:49.751Z,81.90
2019-04-03T02:02:18.400Z,81.80
2019-04-03T02:04:47.046Z,81.70
2019-04-03T02:07:15.716Z,81.80
2019-04-03T02:09:46.250Z,81.90
2019-04-03T02:12:14.661Z,82.00
2019-04-03T02:14:46.014Z,82.00
2019-04-03T02:17:14.725Z,82.00
2019-04-03T02:19:44.819Z,82.30
2019-04-03T02:22:16.425Z,83.80
2019-04-03T02:24:44.996Z,84.10
2019-04-03T02:27:13.627Z,83.30
2019-04-03T02:29:42.215Z,83.80
2019-04-03T02:32:10.787Z,83.70
2019-04-03T02:34:39.490Z,83.80
2019-04-03T02:37:08.012Z,83.20
2019-04-03T02:39:36.736Z,83.40
2019-04-03T02:42:08.350Z,83.40
2019-04-03T02:44:35.887Z,83.70
2019-04-03T02:47:04.534Z,83.10
2019-04-03T02:49:33.138Z,84.20
2019-04-03T02:52:01.841Z,84.20
2019-04-03T02:54:34.656Z,85.10
2019-04-03T02:57:01.882Z,85.60
2019-04-03T02:59:30.448Z,86.50
2019-04-03T03:01:59.376Z,85.90
2019-04-03T03:04:28.460Z,86.50
2019-04-03T03:06:57.089Z,86.80
2019-04-03T03:09:26.439Z,85.90
2019-04-03T03:11:56.896Z,85.80
2019-04-03T03:14:29.322Z,86.30
2019-04-03T03:16:59.674Z,85.60
2019-04-03T03:19:32.066Z,86.00
2019-04-03T03:22:01.407Z,85.20
2019-04-03T03:24:32.450Z,85.30
2019-04-03T03:27:01.805Z,85.50
2019-04-03T03:29:33.424Z,85.30
2019-04-03T03:32:12.628Z,85.10
2019-04-03T03:34:50.772Z,85.20
2019-04-03T03:37:06.721Z,85.10
2019-04-03T03:39:43.602Z,85.00
2019-04-03T03:42:14.464Z,85.00
2019-04-03T03:44:45.945Z,85.00
2019-04-03T03:47:14.649Z,84.80
2019-04-03T03:49:44.545Z,84.80
2019-04-03T03:52:15.477Z,84.70
2019-04-03T03:54:44.418Z,84.60
2019-04-03T03:57:13.708Z,84.50
2019-04-03T03:59:42.830Z,84.50
2019-04-03T04:02:11.656Z,84.30
2019-04-03T04:04:41.188Z,84.30
2019-04-03T04:07:10.093Z,84.50
2019-04-03T04:09:42.205Z,84.40
2019-04-03T04:12:11.036Z,84.40
2019-04-03T04:14:40.727Z,84.40
2019-04-03T04:17:15.466Z,84.50
2019-04-03T04:19:41.336Z,84.30
2019-04-03T04:22:09.984Z,84.40
2019-04-03T04:24:38.566Z,84.40
2019-04-03T04:27:07.623Z,84.40
2019-04-03T04:29:36.336Z,84.40
2019-04-03T04:32:05.010Z,84.50
2019-04-03T04:34:33.741Z,84.40
2019-04-03T04:37:03.120Z,84.40
2019-04-03T04:39:32.229Z,85.10
2019-04-03T04:42:03.651Z,85.40
2019-04-03T04:44:32.315Z,86.20
2019-04-03T04:47:00.907Z,87.50
2019-04-03T04:49:29.465Z,87.10
2019-04-03T04:51:58.047Z,86.90
2019-04-03T04:54:26.627Z,86.80
2019-04-03T04:56:55.234Z,86.60
2019-04-03T04:59:29.142Z,86.50
2019-04-03T05:02:03.323Z,86.30
2019-04-03T05:04:32.405Z,86.20
2019-04-03T05:07:05.028Z,86.20
2019-04-03T05:09:34.874Z,86.20
2019-04-03T05:12:03.844Z,86.10
2019-04-03T05:14:32.433Z,86.00
2019-04-03T05:17:01.219Z,86.00
2019-04-03T05:19:29.805Z,85.90
2019-04-03T05:22:04.377Z,86.00
2019-04-03T05:24:33.036Z,85.90
2019-04-03T05:27:10.327Z,85.90
2019-04-03T05:29:38.932Z,86.00
2019-04-03T05:32:09.914Z,86.00
2019-04-03T05:34:37.990Z,86.00
2019-04-03T05:37:06.708Z,86.20
2019-04-03T05:39:35.286Z,86.10
2019-04-03T05:42:05.759Z,86.20
2019-04-03T05:44:34.508Z,87.00
2019-04-03T05:47:03.148Z,87.20
2019-04-03T05:49:32.029Z,87.20
2019-04-03T05:52:08.799Z,87.20
2019-04-03T05:54:46.957Z,89.00
2019-04-03T05:57:23.513Z,87.70
2019-04-03T06:00:01.067Z,89.30
2019-04-03T06:02:25.860Z,90.90
2019-04-03T06:04:54.543Z,91.50
2019-04-03T06:07:23.489Z,92.00
2019-04-03T06:09:53.878Z,92.70
2019-04-03T06:12:23.297Z,93.20
2019-04-03T06:14:56.536Z,93.80
2019-04-03T06:17:32.101Z,93.70
2019-04-03T06:20:11.283Z,93.70
2019-04-03T06:22:38.907Z,93.50
2019-04-03T06:25:10.375Z,93.70
2019-04-03T06:27:40.672Z,93.30
2019-04-03T06:30:08.585Z,93.00
2019-04-03T06:32:37.184Z,92.80
2019-04-03T06:35:08.624Z,92.40
2019-04-03T06:37:37.218Z,91.90
2019-04-03T06:40:08.389Z,91.70
2019-04-03T06:42:36.960Z,91.30
2019-04-03T06:45:11.516Z,91.00
2019-04-03T06:47:40.099Z,90.80
2019-04-03T06:50:10.355Z,91.00
2019-04-03T06:52:39.179Z,91.30
2019-04-03T06:55:12.329Z,91.50
2019-04-03T06:57:40.920Z,91.60
2019-04-03T07:00:09.774Z,92.20
2019-04-03T07:02:38.354Z,92.10
2019-04-03T07:05:09.641Z,91.90
2019-04-03T07:07:37.527Z,91.80
2019-04-03T07:10:09.191Z,91.40
2019-04-03T07:12:37.856Z,91.20
2019-04-03T07:15:10.037Z,91.30
2019-04-03T07:17:46.960Z,91.50
2019-04-03T07:20:18.946Z,91.80
2019-04-03T07:22:45.895Z,91.80
2019-04-03T07:25:14.701Z,91.60
2019-04-03T07:27:43.438Z,91.20
2019-04-03T07:30:12.534Z,90.40
2019-04-03T07:32:41.155Z,90.30
2019-04-03T07:35:10.422Z,90.40
2019-04-03T07:37:39.027Z,88.60
2019-04-03T07:40:09.410Z,88.60
2019-04-03T07:42:38.074Z,88.00
2019-04-03T07:45:07.417Z,86.90
2019-04-03T07:47:41.441Z,87.00
2019-04-03T07:50:10.947Z,86.90
2019-04-03T07:52:40.473Z,85.80
2019-04-03T07:55:09.992Z,86.40
2019-04-03T07:57:41.046Z,87.20
2019-04-03T08:00:17.167Z,86.50
2019-04-03T08:02:53.678Z,86.30
2019-04-03T08:05:34.381Z,86.30
2019-04-03T08:08:04.296Z,86.60
2019-04-03T08:10:33.054Z,86.30
2019-04-03T08:13:06.226Z,86.80
2019-04-03T08:15:35.277Z,86.60
2019-04-03T08:18:04.016Z,86.90
2019-04-03T08:20:33.051Z,86.50
2019-04-03T08:23:04.725Z,86.30
2019-04-03T08:25:35.056Z,86.50
2019-04-03T08:28:04.133Z,86.50
2019-04-03T08:30:32.732Z,86.10
2019-04-03T08:33:14.849Z,86.00
2019-04-03T08:35:35.784Z,85.60
2019-04-03T08:38:03.485Z,85.60
2019-04-03T08:40:32.228Z,85.70
2019-04-03T08:43:01.368Z,85.70
2019-04-03T08:45:38.530Z,85.70
2019-04-03T08:48:14.969Z,85.70
2019-04-03T08:50:44.578Z,85.10
2019-04-03T08:53:19.122Z,84.60
2019-04-03T08:55:47.850Z,84.60
2019-04-03T08:58:16.478Z,83.80
2019-04-03T09:00:47.867Z,84.10
2019-04-03T09:03:16.809Z,83.80
2019-04-03T09:05:50.756Z,83.40
2019-04-03T09:08:18.870Z,82.90
2019-04-03T09:10:51.449Z,83.10
2019-04-03T09:13:22.935Z,83.10
2019-04-03T09:15:58.709Z,83.30
2019-04-03T09:18:29.755Z,83.10
2019-04-03T09:21:00.119Z,83.20
2019-04-03T09:23:28.795Z,83.10
2019-04-03T09:25:57.392Z,83.40
2019-04-03T09:28:26.038Z,83.30
2019-04-03T09:30:54.610Z,84.00
2019-04-03T09:33:27.987Z,84.10
2019-04-03T09:35:58.774Z,84.10
2019-04-03T09:38:27.613Z,84.60
2019-04-03T09:40:56.227Z,85.30
2019-04-03T09:43:24.814Z,85.20
2019-04-03T09:45:53.720Z,85.20
2019-04-03T09:48:22.325Z,85.10
2019-04-03T09:50:51.037Z,84.80
2019-04-03T09:53:26.379Z,84.50
2019-04-03T09:55:54.781Z,83.50
2019-04-03T09:58:23.419Z,83.40
2019-04-03T10:00:52.039Z,82.10
2019-04-03T10:03:20.817Z,82.40
2019-04-03T10:06:00.808Z,80.50
2019-04-03T10:08:31.747Z,80.70
2019-04-03T10:11:03.897Z,80.30
2019-04-03T10:13:47.123Z,80.00
2019-04-03T10:16:18.348Z,80.50
2019-04-03T10:18:47.249Z,80.40
2019-04-03T10:21:19.925Z,80.50
2019-04-03T10:23:48.793Z,80.20
2019-04-03T10:26:20.401Z,80.80
2019-04-03T10:28:49.108Z,81.10
2019-04-03T10:31:17.742Z,80.60
2019-04-03T10:33:46.540Z,80.60
2019-04-03T10:36:17.531Z,80.50
2019-04-03T10:38:46.916Z,80.80
2019-04-03T10:41:16.150Z,81.40
2019-04-03T10:43:44.858Z,81.80
2019-04-03T10:46:14.434Z,81.70
2019-04-03T10:48:43.068Z,81.40
2019-04-03T10:51:11.909Z,81.10
2019-04-03T10:53:40.442Z,81.00
2019-04-03T10:56:09.592Z,80.40
2019-04-03T10:58:41.956Z,80.30
2019-04-03T11:01:11.483Z,79.70
2019-04-03T11:03:40.258Z,80.30
2019-04-03T11:06:09.792Z,80.50
2019-04-03T11:08:41.047Z,80.60
2019-04-03T11:11:09.663Z,80.60
2019-04-03T11:13:38.264Z,79.90
2019-04-03T11:16:07.084Z,79.90
2019-04-03T11:18:35.685Z,79.70
2019-04-03T11:21:04.659Z,79.80
2019-04-03T11:23:38.975Z,79.30
2019-04-03T11:26:12.802Z,79.40
2019-04-03T11:28:57.314Z,79.70
2019-04-03T11:31:31.565Z,79.30
2019-04-03T11:34:19.494Z,79.10
2019-04-03T11:37:00.873Z,78.80
2019-04-03T11:39:33.171Z,78.70
2019-04-03T11:42:22.155Z,77.90
2019-04-03T11:44:41.396Z,78.10
2019-04-03T11:47:13.056Z,78.70
2019-04-03T11:49:43.409Z,78.70
2019-04-03T11:52:11.959Z,78.50
2019-04-03T11:54:40.886Z,78.40
2019-04-03T11:57:09.715Z,77.90
2019-04-03T11:59:38.710Z,77.90
2019-04-03T12:02:07.889Z,78.10
2019-04-03T12:04:37.185Z,77.60
2019-04-03T12:07:06.133Z,77.80
2019-04-03T12:09:39.572Z,77.80
2019-04-03T12:12:10.173Z,77.50
2019-04-03T12:14:40.305Z,77.80
2019-04-03T12:17:08.953Z,77.30
2019-04-03T12:19:38.467Z,76.70
2019-04-03T12:22:07.698Z,77.50
2019-04-03T12:24:36.274Z,77.40
2019-04-03T12:27:05.410Z,77.50
2019-04-03T12:29:34.287Z,77.80
2019-04-03T12:32:03.951Z,78.30
2019-04-03T12:34:37.693Z,78.50
2019-04-03T12:37:16.446Z,78.90
2019-04-03T12:39:45.638Z,78.90
2019-04-03T12:42:20.005Z,78.70
2019-04-03T12:44:48.838Z,78.50
2019-04-03T12:47:20.422Z,77.30
2019-04-03T12:49:49.100Z,78.00
2019-04-03T12:52:21.228Z,77.90
2019-04-03T12:54:52.808Z,77.60
2019-04-03T12:57:22.177Z,77.70
2019-04-03T12:59:51.763Z,77.70
2019-04-03T13:02:20.989Z,77.60
2019-04-03T13:04:50.482Z,77.60
2019-04-03T13:07:19.421Z,77.20
2019-04-03T13:09:48.007Z,77.40
2019-04-03T13:12:16.603Z,77.30
2019-04-03T13:14:49.141Z,77.70
2019-04-03T13:17:22.778Z,77.60
2019-04-03T13:19:51.903Z,76.90
2019-04-03T13:22:24.659Z,77.20
2019-04-03T13:24:57.410Z,76.80
2019-04-03T13:27:34.021Z,76.80
2019-04-03T13:30:04.726Z,76.40
2019-04-03T13:32:33.750Z,76.40
2019-04-03T13:35:05.895Z,76.30
2019-04-03T13:37:35.140Z,75.60
2019-04-03T13:40:07.600Z,75.00
2019-04-03T13:42:36.611Z,74.40
2019-04-03T13:45:07.501Z,74.00
2019-04-03T13:47:36.056Z,74.00
2019-04-03T13:50:08.403Z,73.10
2019-04-03T13:52:40.913Z,73.10
2019-04-03T13:55:37.536Z,72.80
2019-04-03T13:58:04.596Z,72.70
2019-04-03T14:00:36.141Z,72.70
2019-04-03T14:03:09.087Z,71.90
2019-04-03T14:05:44.475Z,72.20
2019-04-03T14:08:21.187Z,72.50
2019-04-03T14:10:52.725Z,72.00
2019-04-03T14:13:21.718Z,71.90
2019-04-03T14:15:50.357Z,72.20
2019-04-03T14:18:18.977Z,73.20
2019-04-03T14:20:50.375Z,72.70
2019-04-03T14:23:24.979Z,72.10
2019-04-03T14:26:03.954Z,72.00
2019-04-03T14:28:25.511Z,72.50
2019-04-03T14:30:54.151Z,72.00
2019-04-03T14:33:25.534Z,71.60
2019-04-03T14:35:54.920Z,71.50
2019-04-03T14:38:23.605Z,72.00
2019-04-03T14:40:52.811Z,72.10
2019-04-03T14:43:22.307Z,72.10
2019-04-03T14:45:51.636Z,72.10
2019-04-03T14:48:28.711Z,72.70
2019-04-03T14:50:59.821Z,72.50
2019-04-03T14:53:30.074Z,72.40
2019-04-03T14:56:00.349Z,72.00
2019-04-03T14:58:29.263Z,71.70
2019-04-03T15:01:02.163Z,69.60
2019-04-03T15:03:33.439Z,70.70
2019-04-03T15:06:01.362Z,70.70
2019-04-03T15:08:30.366Z,70.40
2019-04-03T15:10:58.929Z,70.60
2019-04-03T15:13:33.395Z,70.60
2019-04-03T15:16:02.062Z,70.60
2019-04-03T15:18:30.750Z,70.30
2019-04-03T15:21:02.059Z,69.40
2019-04-03T15:23:31.013Z,68.00
2019-04-03T15:26:02.363Z,67.40
2019-04-03T15:28:31.865Z,66.00
2019-04-03T15:31:01.004Z,66.20
2019-04-03T15:33:33.046Z,66.00
2019-04-03T15:36:03.512Z,66.30
2019-04-03T15:38:32.018Z,66.50
2019-04-03T15:41:01.336Z,66.20
2019-04-03T15:43:30.309Z,66.30
2019-04-03T15:46:04.238Z,66.20
2019-04-03T15:48:32.460Z,65.60
2019-04-03T15:51:01.206Z,65.80
2019-04-03T15:53:30.195Z,64.90
2019-04-03T15:55:59.199Z,65.00
2019-04-03T15:58:34.227Z,65.20
2019-04-03T16:01:06.809Z,64.70
2019-04-03T16:03:34.182Z,64.20
2019-04-03T16:06:04.301Z,63.30
2019-04-03T16:08:33.153Z,62.70
2019-04-03T16:11:03.725Z,63.20
2019-04-03T16:13:37.245Z,62.40
2019-04-03T16:16:06.121Z,61.30
2019-04-03T16:18:36.199Z,61.30
2019-04-03T16:21:05.867Z,61.20
2019-04-03T16:23:37.284Z,61.30
2019-04-03T16:26:06.671Z,61.00
2019-04-03T16:28:35.762Z,61.10
2019-04-03T16:31:07.109Z,60.60
2019-04-03T16:33:42.462Z,60.60
2019-04-03T16:36:11.249Z,60.30
2019-04-03T16:38:42.551Z,60.40
2019-04-03T16:41:13.847Z,60.60
2019-04-03T16:43:45.095Z,60.60
2019-04-03T16:46:13.850Z,60.50
2019-04-03T16:48:42.576Z,60.90
2019-04-03T16:51:12.226Z,60.50
2019-04-03T16:53:40.975Z,60.70
2019-04-03T16:56:18.706Z,61.20
2019-04-03T16:59:01.525Z,60.80
2019-04-03T17:01:45.603Z,60.70
2019-04-03T17:04:25.537Z,60.70
2019-04-03T17:06:47.610Z,61.20
2019-04-03T17:09:21.253Z,61.20
2019-04-03T17:11:51.146Z,60.90
2019-04-03T17:14:40.082Z,60.90
2019-04-03T17:17:13.425Z,61.00
2019-04-03T17:19:39.669Z,61.10
2019-04-03T17:22:11.728Z,61.10
2019-04-03T17:24:44.144Z,60.40
2019-04-03T17:27:10.558Z,60.50
2019-04-03T17:29:39.118Z,60.40
2019-04-03T17:32:08.843Z,60.40
2019-04-03T17:34:42.003Z,60.40
2019-04-03T17:37:08.845Z,60.40
2019-04-03T17:39:37.396Z,60.10
2019-04-03T17:42:15.174Z,60.30
2019-04-03T17:44:44.832Z,60.90
2019-04-03T17:47:19.407Z,60.20
2019-04-03T17:49:48.371Z,60.50
2019-04-03T17:52:17.000Z,60.60
2019-04-03T17:54:48.476Z,60.50
2019-04-03T17:57:17.599Z,60.30
2019-04-03T17:59:49.002Z,60.30
2019-04-03T18:02:16.500Z,60.30
2019-04-03T18:04:46.006Z,60.30
2019-04-03T18:07:16.632Z,60.40
2019-04-03T18:09:50.386Z,60.60
2019-04-03T18:12:21.943Z,60.80
2019-04-03T18:14:50.288Z,60.80
2019-04-03T18:17:19.435Z,61.20
2019-04-03T18:20:19.681Z,61.20
2019-04-03T18:22:22.822Z,61.20
2019-04-03T18:24:56.232Z,59.10
2019-04-03T18:27:25.041Z,68.50
2019-04-03T18:29:54.090Z,74.60
2019-04-03T18:32:22.812Z,79.30
2019-04-03T18:34:54.830Z,83.80
2019-04-03T18:37:22.697Z,87.90
2019-04-03T18:39:51.671Z,91.60
2019-04-03T18:42:20.299Z,93.70
2019-04-03T18:44:59.134Z,95.30
2019-04-03T18:47:40.971Z,96.30
2019-04-03T18:50:10.045Z,97.30
2019-04-03T18:52:40.987Z,98.10
2019-04-03T18:55:15.529Z,98.80
2019-04-03T18:57:45.967Z,99.90
2019-04-03T19:00:22.560Z,99.90
2019-04-03T19:02:51.288Z,99.90
2019-04-03T19:05:20.134Z,99.90
2019-04-03T19:07:49.004Z,99.90
2019-04-03T19:10:18.835Z,99.90
2019-04-03T19:12:47.600Z,99.90
2019-04-03T19:15:16.899Z,99.90
2019-04-03T19:17:59.127Z,99.90
2019-04-03T19:20:17.252Z,99.90
2019-04-03T19:23:01.866Z,99.90
2019-04-03T19:25:27.876Z,99.90
2019-04-03T19:28:00.120Z,99.90
2019-04-03T19:30:29.436Z,99.90
2019-04-03T19:33:01.407Z,99.90
2019-04-03T19:35:36.375Z,99.90
2019-04-03T19:38:08.129Z,99.90
2019-04-03T19:40:40.326Z,99.90
2019-04-03T19:43:14.523Z,99.90
2019-04-03T19:45:43.136Z,99.90
2019-04-03T19:48:14.457Z,99.90
2019-04-03T19:50:43.152Z,99.90
2019-04-03T19:53:13.452Z,99.90
2019-04-03T19:55:43.147Z,99.90
2019-04-03T19:58:12.029Z,99.90
2019-04-03T20:00:42.297Z,99.90
2019-04-03T20:03:13.676Z,99.90
2019-04-03T20:05:43.900Z,99.90
2019-04-03T20:08:12.294Z,99.90
2019-04-03T20:10:41.448Z,99.90
2019-04-03T20:13:10.073Z,99.90
2019-04-03T20:15:46.155Z,99.90
2019-04-03T20:18:15.103Z,99.90
2019-04-03T20:20:50.161Z,99.90
2019-04-03T20:23:25.570Z,99.90
2019-04-03T20:25:54.626Z,99.90
2019-04-03T20:28:24.095Z,99.90
2019-04-03T20:30:53.048Z,99.90
2019-04-03T20:33:21.644Z,99.90
2019-04-03T20:35:50.292Z,99.90
2019-04-03T20:38:21.922Z,99.90
2019-04-03T20:40:50.593Z,99.90
2019-04-03T20:43:19.211Z,99.90
2019-04-03T20:45:49.544Z,99.90
2019-04-03T20:48:18.427Z,99.90
2019-04-03T20:50:47.497Z,99.90
2019-04-03T20:53:17.210Z,99.90
2019-04-03T20:55:56.008Z,99.90
2019-04-03T20:58:29.597Z,99.90
2019-04-03T21:01:06.027Z,99.90
2019-04-03T21:03:28.432Z,99.90
2019-04-03T21:05:57.083Z,99.90
2019-04-03T21:08:26.687Z,99.90
2019-04-03T21:10:55.764Z,99.90
2019-04-03T21:13:25.990Z,99.90
2019-04-03T21:15:54.615Z,99.90
2019-04-03T21:18:23.221Z,99.90
2019-04-03T21:20:52.808Z,99.90
2019-04-03T21:23:22.114Z,99.90
2019-04-03T21:25:50.682Z,99.90
2019-04-03T21:28:19.246Z,99.90
2019-04-03T21:30:48.010Z,99.90
2019-04-03T21:33:17.404Z,99.90
2019-04-03T21:35:46.176Z,99.90
2019-04-03T21:38:14.734Z,99.90
2019-04-03T21:40:45.018Z,99.90
2019-04-03T21:43:14.558Z,99.90
2019-04-03T21:45:43.304Z,99.90
2019-04-03T21:48:14.886Z,99.70
2019-04-03T21:50:43.554Z,99.40
2019-04-03T21:53:12.670Z,98.70
2019-04-03T21:55:41.616Z,99.00
2019-04-03T21:58:10.314Z,99.10
2019-04-03T22:00:49.461Z,99.10
2019-04-03T22:03:19.703Z,99.40
2019-04-03T22:05:48.820Z,99.50
2019-04-03T22:08:20.362Z,99.10
2019-04-03T22:10:51.976Z,99.50
2019-04-03T22:13:20.926Z,99.80
2019-04-03T22:15:49.721Z,99.90
2019-04-03T22:18:18.451Z,99.90
2019-04-03T22:20:47.908Z,99.90
2019-04-03T22:23:18.130Z,99.90
2019-04-03T22:50:27.596Z,99.90
2019-04-03T22:52:56.335Z,99.90
2019-04-03T22:55:25.175Z,99.90
2019-04-03T22:57:53.812Z,99.90
2019-04-03T23:00:25.475Z,99.90
2019-04-03T23:02:52.727Z,99.90
2019-04-03T23:05:24.315Z,99.90
2019-04-03T23:07:53.001Z,99.90
2019-04-03T23:10:21.567Z,99.90
2019-04-03T23:12:50.444Z,99.90
2019-04-03T23:15:19.171Z,99.90
2019-04-03T23:17:47.809Z,99.90
2019-04-03T23:20:16.477Z,99.90
2019-04-03T23:22:45.043Z,99.90
2019-04-03T23:25:13.605Z,99.90
2019-04-03T23:27:43.737Z,99.90
2019-04-03T23:30:13.905Z,99.90
2019-04-03T23:32:45.712Z,99.90
2019-04-03T23:35:13.554Z,99.90
2019-04-03T23:37:45.133Z,99.90
2019-04-03T23:40:13.867Z,99.90
2019-04-03T23:42:45.443Z,99.90
2019-04-03T23:45:14.067Z,99.90
2019-04-03T23:47:47.021Z,99.90
2019-04-03T23:50:15.798Z,99.90
2019-04-03T23:52:44.373Z,99.90
2019-04-03T23:55:13.072Z,99.90
2019-04-03T23:57:41.724Z,99.90
